Alstead Center, New Hampshire
Current Conditions -  °F | °C
As of 7:35 AM on Thursday 23 Oct 2014 (Local Time) from KEEN Reporting Station
Overcast Overcast  
Wind Chill: 46°   Ceiling: 1300
Heat Index: 48°   Visibility: 8mi
Dew Point: 39°   Wind: 5mph
Humidity: 71%   Direction: 340°NNW
Pressure: 29.79"   Gusts: NA
Location:  43.1141°N, 72.3097°W
Report Text: KEEN 231135Z AUTO 34004KT 8SM BKN013 OVC021 09/04 A2979 RMK AO1 P0006
Loading
Personal Weather Stations






























Interactive Weather Map New forecast layout! Learn more

10-Day Weather Forecast

Advertisements
Track Severe Weather on mobile